Dillman, Indiana
Current Conditions -  °F | °C
As of 8:35 PM on Tuesday 25 Nov 2014 (Local Time) from KHHG Reporting Station
Overcast Overcast  
Wind Chill: 26°   Ceiling: 1600
Heat Index: 26°   Visibility: 10mi
Dew Point: 20°   Wind: 0mph
Humidity: 81%   Direction: NA
Pressure: 30.21"   Gusts: NA
Location:  40.6897°N, 85.3916°W
Report Text: KHHG 260135Z AUTO 00000KT 10SM OVC016 M04/M06 A3021 RMK AO2 T10361065
Loading
Personal Weather Stations






























Interactive Weather Map New forecast layout! Learn more

10-Day Weather Forecast

Advertisements
Track Severe Weather on mobile